MDT,Max TemperatureF,Mean TemperatureF,Min TemperatureF,Max Dew PointF,MeanDew PointF,Min DewpointF,Max Humidity, Mean Humidity, Min Humidity, Max Sea Level PressureIn, Mean Sea Level PressureIn, Min Sea Level PressureIn, Max VisibilityMiles, Mean VisibilityMiles, Min VisibilityMiles, Max Wind SpeedMPH, Mean Wind SpeedMPH, Max Gust SpeedMPH,PrecipitationIn, CloudCover, Events, WindDirDegrees
2013-10-1,68,54,39,34,28,23,65,41,19,29.92,29.86,29.74,10,10,10,26,12,33,0.00,0,,251
2013-10-2,60,53,46,36,28,25,58,40,27,30.06,30.01,29.93,10,10,10,16,9,23,0.00,2,,312
2013-10-3,50,46,41,36,31,27,76,56,46,30.27,30.11,30.02,10,10,10,20,9,23,0.00,5,,28
2013-10-4,41,34,28,34,30,21,87,75,56,30.38,30.33,30.26,10,10,4,21,15,25,0.00,5,,1
2013-10-5,55,40,26,25,23,19,80,55,26,30.28,30.18,30.05,10,10,10,15,11,20,0.00,0,,317
2013-10-6,71,50,30,37,32,23,80,50,27,30.08,30.03,29.96,10,10,10,18,6,24,0.00,0,,258
2013-10-7,77,57,37,39,36,30,87,52,22,29.96,29.79,29.62,10,10,10,17,8,22,0.00,0,,195
2013-10-8,64,53,42,39,30,27,81,41,24,29.92,29.75,29.62,10,10,9,18,8,23,0.00,0,,314
2013-10-9,62,50,37,37,30,25,61,46,26,30.09,30.01,29.92,10,10,10,10,6,,0.00,1,,49
2013-10-10,64,50,37,43,37,30,76,56,40,29.95,29.77,29.65,10,10,7,9,5,,0.00,1,,113
2013-10-11,51,48,42,45,33,21,87,60,35,29.90,29.74,29.64,10,10,9,29,16,39,0.06,5,,318
2013-10-12,55,42,30,28,23,19,75,48,25,30.23,30.09,29.91,10,10,10,18,12,26,0.00,1,,301
2013-10-13,57,42,26,37,26,18,81,58,31,30.27,30.22,30.17,10,10,5,20,8,23,0.06,1,,39
2013-10-14,42,40,37,37,35,34,93,87,81,30.27,30.19,30.14,10,10,8,29,20,36,0.30,8,,25
2013-10-15,42,34,30,28,25,23,80,71,57,30.31,30.30,30.28,10,10,10,15,12,,0.00,0,,328
2013-10-16,55,40,26,36,32,21,93,69,36,30.07,29.97,29.90,10,10,6,25,9,34,0.13,2,,273
2013-10-17,46,39,32,34,28,19,93,69,37,30.14,30.08,30.05,10,10,10,16,11,21,0.00,5,,301
2013-10-18,48,40,33,34,31,28,93,68,46,30.09,29.99,29.84,10,10,10,21,11,28,0.00,5,,283
2013-10-19,60,48,35,34,32,28,81,57,34,29.84,29.77,29.70,10,10,10,23,10,29,0.00,2,,286
2013-10-20,46,39,32,36,29,21,87,70,45,30.04,29.96,29.76,10,10,9,22,15,31,0.00,7,,310
2013-10-21,51,43,35,45,38,32,93,81,66,30.00,29.93,29.88,10,10,9,20,8,25,0.03,4,,283
2013-10-22,50,41,32,39,36,28,93,78,58,30.11,30.05,29.98,10,10,10,17,8,21,0.00,4,,309
2013-10-23,42,34,26,37,34,25,100,83,66,30.29,30.18,29.99,10,10,10,14,8,,0.00,5,,20
2013-10-24,46,34,21,32,27,19,100,77,50,30.32,30.26,30.10,10,8,0,10,3,,0.00,2,,143
2013-10-25,62,47,32,41,31,19,93,62,29,30.23,30.08,29.98,10,10,10,21,11,26,0.00,0,,281
2013-10-26,60,40,21,34,24,16,80,58,29,30.28,30.13,29.87,10,10,10,15,8,,0.00,0,,241
2013-10-27,48,38,28,32,27,21,87,68,50,30.30,29.99,29.83,10,10,4,26,9,33,0.00,2,,45
2013-10-28,28,26,24,25,21,19,93,83,74,30.42,30.36,30.29,10,7,1,20,13,21,0.01,8,,71
2013-10-29,32,28,23,27,24,19,86,82,75,30.29,30.10,29.95,10,10,5,12,7,,0.01,8,,116
2013-10-30,48,38,28,34,28,25,93,78,53,29.94,29.79,29.66,10,10,10,12,5,16,0.00,3,,202
2013-10-31,53,42,30,36,31,27,87,68,41,29.74,29.65,29.58,10,10,10,23,12,32,0.00,3,,281